METAR AND TAF INFORMATION
METAR FOR SBNT
ADDS - METARS form results

(1409 UTC 22 April 2018)
Data provider http://aviationweather.gov/adds/metars/
 
METAR text: SBNT 221400Z 10013KT 9999 BKN023 30/22 Q1012
Conditions at: SBNT (NATAL/AUGUSTO SE, BR) observed 1400 UTC 22 April 2018
Temperature: 30.0°C (86°F)
Dewpoint: 22.0°C (72°F) [RH = 62%]
Pressure (altimeter): 29.88 inches Hg (1012.0 mb)
Winds: from the E (100 degrees) at 15 MPH (13 knots; 6.8 m/s)
Visibility: 6 or more miles (10+ km)
Ceiling: 2300 feet AGL
Clouds: broken clouds at 2300 feet AGL
Weather: no significant weather observed at this time

Forecast for: SBNT (NATAL/AUGUSTO SE, BR)
Text: TAF SBNT 221000Z 2212/2312 14008KT 8000 BKN020 TX30/2216Z TN24/2308Z
Forecast period: 1200 to 1400 UTC 22 April 2018
Forecast type: FROM: standard forecast or significant change
Winds: from the SE (140 degrees) at 9 MPH (8 knots; 4.2 m/s)
Visibility: 5 miles (8 km)
Ceiling: 2000 feet AGL
Clouds: broken clouds at 2000 feet AGL
Weather: no significant weather forecast for this period
Forecast for: SBNT (NATAL/AUGUSTO SE, BR)
Text: TAF SBNT 221000Z 2212/2312 14008KT 8000 BKN020 TX30/2216Z TN24/2308Z
Forecast period: 1200 to 1400 UTC 22 April 2018
Forecast type: FROM: standard forecast or significant change
Winds: from the SE (140 degrees) at 9 MPH (8 knots; 4.2 m/s)
Visibility: 5 miles (8 km)
Ceiling: 2000 feet AGL
Clouds: broken clouds at 2000 feet AGL
Weather: no significant weather forecast for this period
Forecast for: SBNT (NATAL/AUGUSTO SE, BR)
Text: TAF SBNT 221000Z 2212/2312 14008KT 8000 BKN020 TX30/2216Z TN24/2308Z
Forecast period: 1400 UTC 22 April 2018 to 0000 UTC 23 April 2018
Forecast type: BECOMING: Conditions expected to become as follows by 1600 UTC 22 April 2018
Winds: from the SE (140 degrees) at 9 MPH (8 knots; 4.2 m/s)
Visibility: 5 miles (8 km)
Clouds: scattered clouds at 2000 feet AGL
Weather: no significant weather forecast for this period
Forecast for: SBNT (NATAL/AUGUSTO SE, BR)
Text: TAF SBNT 221000Z 2212/2312 14008KT 8000 BKN020 TX30/2216Z TN24/2308Z
Forecast period: 1400 UTC 22 April 2018 to 0000 UTC 23 April 2018
Forecast type: BECOMING: Conditions expected to become as follows by 1600 UTC 22 April 2018
Winds: from the SE (140 degrees) at 9 MPH (8 knots; 4.2 m/s)
Visibility: 5 miles (8 km)
Clouds: scattered clouds at 2000 feet AGL
Weather: no significant weather forecast for this period
Forecast for: SBNT (NATAL/AUGUSTO SE, BR)
Text: TAF SBNT 221000Z 2212/2312 14008KT 8000 BKN020 TX30/2216Z TN24/2308Z
Forecast period: 0000 to 1200 UTC 23 April 2018
Forecast type: BECOMING: Conditions expected to become as follows by 0200 UTC 23 April 2018
Winds: from the S (180 degrees) at 6 MPH (5 knots; 2.6 m/s)
Visibility: 5 miles (8 km)
Clouds: scattered clouds at 2000 feet AGL
Weather: no significant weather forecast for this period
Forecast for: SBNT (NATAL/AUGUSTO SE, BR)
Text: TAF SBNT 221000Z 2212/2312 14008KT 8000 BKN020 TX30/2216Z TN24/2308Z
Forecast period: 0000 to 1200 UTC 23 April 2018
Forecast type: BECOMING: Conditions expected to become as follows by 0200 UTC 23 April 2018
Winds: from the S (180 degrees) at 6 MPH (5 knots; 2.6 m/s)
Visibility: 5 miles (8 km)
Clouds: scattered clouds at 2000 feet AGL
Weather: no significant weather forecast for this period

 AIRPORT MAP

 RUNWAY INFORMATION
Runway 12 Runway length 5987 ft Runway width 148 ft
Runway elevation 166 ft Runway displaced threshold 0 ft Runway heading 99
Runway 30 Runway length 5987 ft Runway width 148 ft
Runway elevation 145 ft Runway displaced threshold 0 ft Runway heading 279
Runway 16L Runway length 8530 ft Runway width 148 ft
Runway elevation 149 ft Runway displaced threshold 0 ft Runway heading 141
Runway 34R Runway length 8530 ft Runway width 148 ft
Runway elevation 138 ft Runway displaced threshold 0 ft Runway heading 321
Runway 16R Runway length 5905 ft Runway width 148 ft
Runway elevation 161 ft Runway displaced threshold 0 ft Runway heading 141
Runway 34L Runway length 5905 ft Runway width 148 ft
Runway elevation 151 ft Runway displaced threshold 0 ft Runway heading 321

 AIRPORT FREQUENCIES
Type APP Name NATAL APP Frequency 119.3 MHZ
Type ATIS Name NATAL ATIS Frequency 132.65 MHZ
Type GND Name GND Frequency 121.9 MHZ
Type OPS Name NATAL OPS Frequency 122.5 MHZ
Type TWR Name NATAL TWR Frequency 118.7 MHZ

 AIRPORT NEAR NAVIGATION AIDS
Type VOR-DME Name Natal Frequency 114300 KHZ
Type NDB Name Natal Frequency 400 KHZ



Powered by Virtual Airlines Manager [v2.6.2]